createdAt,value
2022-08-18T00:01:58.640Z,99.90
2022-08-18T00:04:35.640Z,99.90
2022-08-18T00:07:03.728Z,99.90
2022-08-18T00:09:32.720Z,99.90
2022-08-18T00:12:03.120Z,99.90
2022-08-18T00:14:30.364Z,99.90
2022-08-18T00:16:57.644Z,99.90
2022-08-18T00:19:45.962Z,99.90
2022-08-18T00:22:15.919Z,99.90
2022-08-18T00:24:48.560Z,99.90
2022-08-18T00:27:21.660Z,99.90
2022-08-18T00:29:49.156Z,99.90
2022-08-18T00:32:22.811Z,99.90
2022-08-18T00:34:49.621Z,99.90
2022-08-18T00:37:16.544Z,99.90
2022-08-18T00:39:46.355Z,99.90
2022-08-18T00:42:29.007Z,99.90
2022-08-18T00:45:00.216Z,99.90
2022-08-18T00:47:41.775Z,99.90
2022-08-18T00:50:23.889Z,99.90
2022-08-18T00:52:57.441Z,99.90
2022-08-18T00:55:25.299Z,99.90
2022-08-18T00:57:55.869Z,99.90
2022-08-18T01:00:23.057Z,99.90
2022-08-18T01:02:56.484Z,99.90
2022-08-18T01:05:33.875Z,99.90
2022-08-18T01:08:01.120Z,99.90
2022-08-18T01:10:28.005Z,99.90
2022-08-18T01:12:57.864Z,99.90
2022-08-18T01:15:28.517Z,99.90
2022-08-18T01:18:17.527Z,99.90
2022-08-18T01:21:21.892Z,99.90
2022-08-18T01:23:49.802Z,99.90
2022-08-18T01:26:18.325Z,99.90
2022-08-18T01:28:46.751Z,99.90
2022-08-18T01:31:34.194Z,99.90
2022-08-18T01:34:01.238Z,99.90
2022-08-18T01:36:29.532Z,99.90
2022-08-18T01:38:56.770Z,99.90
2022-08-18T01:41:30.135Z,99.90
2022-08-18T01:43:59.299Z,99.90
2022-08-18T01:46:27.690Z,99.90
2022-08-18T01:48:54.648Z,99.90
2022-08-18T01:51:21.792Z,99.90
2022-08-18T01:54:08.331Z,99.90
2022-08-18T01:56:36.433Z,99.90
2022-08-18T01:59:17.340Z,99.90
2022-08-18T02:01:50.541Z,99.90
2022-08-18T02:04:35.177Z,99.90
2022-08-18T02:07:06.557Z,99.90
2022-08-18T02:09:34.310Z,99.90
2022-08-18T02:12:01.439Z,99.90
2022-08-18T02:14:31.368Z,99.90
2022-08-18T02:17:01.829Z,99.90
2022-08-18T02:19:34.458Z,99.90
2022-08-18T02:22:01.688Z,99.90
2022-08-18T02:24:28.414Z,99.90
2022-08-18T02:26:55.314Z,99.90
2022-08-18T02:29:22.142Z,99.90
2022-08-18T02:31:48.928Z,99.90
2022-08-18T02:34:16.695Z,99.90
2022-08-18T02:36:44.176Z,99.90
2022-08-18T02:39:10.995Z,99.90
2022-08-18T02:41:37.771Z,99.90
2022-08-18T02:44:07.695Z,99.90
2022-08-18T02:46:34.669Z,99.90
2022-08-18T02:49:01.611Z,99.90
2022-08-18T02:51:28.659Z,99.90
2022-08-18T02:53:55.471Z,99.90
2022-08-18T02:56:41.430Z,99.90
2022-08-18T02:59:13.827Z,99.90
2022-08-18T03:01:45.061Z,99.90
2022-08-18T03:04:15.394Z,99.90
2022-08-18T03:06:44.383Z,99.90
2022-08-18T03:09:15.463Z,99.90
2022-08-18T03:11:43.737Z,99.90
2022-08-18T03:14:11.667Z,99.90
2022-08-18T03:16:52.968Z,99.90
2022-08-18T03:19:23.773Z,99.90
2022-08-18T03:21:50.719Z,99.90
2022-08-18T03:24:22.867Z,99.90
2022-08-18T03:26:52.260Z,99.90
2022-08-18T03:29:19.894Z,99.90
2022-08-18T03:31:48.710Z,99.90
2022-08-18T03:34:19.712Z,99.90
2022-08-18T03:36:48.494Z,99.90
2022-08-18T03:39:15.402Z,99.90
2022-08-18T03:41:58.902Z,99.90
2022-08-18T03:44:30.405Z,99.90
2022-08-18T03:46:57.736Z,99.90
2022-08-18T03:49:26.785Z,99.90
2022-08-18T03:51:54.378Z,99.90
2022-08-18T03:54:21.174Z,99.90
2022-08-18T03:56:49.439Z,99.90
2022-08-18T03:59:24.739Z,99.90
2022-08-18T04:01:53.890Z,99.90
2022-08-18T04:04:24.952Z,99.90
2022-08-18T04:07:00.770Z,99.90
2022-08-18T04:09:29.927Z,99.90
2022-08-18T04:11:58.331Z,99.90
2022-08-18T04:14:30.041Z,99.90
2022-08-18T04:16:57.587Z,99.90
2022-08-18T04:19:27.322Z,99.90
2022-08-18T04:21:57.112Z,99.90
2022-08-18T04:24:25.969Z,99.90
2022-08-18T04:26:53.368Z,99.90
2022-08-18T04:29:23.673Z,99.90
2022-08-18T04:31:51.916Z,99.90
2022-08-18T04:34:21.196Z,99.90
2022-08-18T04:36:48.452Z,99.90
2022-08-18T04:39:15.721Z,99.90
2022-08-18T04:41:43.708Z,99.90
2022-08-18T04:44:11.772Z,99.90
2022-08-18T04:46:42.796Z,99.90
2022-08-18T04:49:11.099Z,99.90
2022-08-18T04:52:34.046Z,99.90
2022-08-18T04:54:28.846Z,99.90
2022-08-18T04:56:55.790Z,99.90
2022-08-18T04:59:22.540Z,99.90
2022-08-18T05:01:49.273Z,99.90
2022-08-18T05:04:17.520Z,99.90
2022-08-18T05:06:45.669Z,99.90
2022-08-18T05:09:16.415Z,99.90
2022-08-18T05:11:50.637Z,99.90
2022-08-18T05:14:18.362Z,99.90
2022-08-18T05:16:48.920Z,99.90
2022-08-18T05:19:26.131Z,99.90
2022-08-18T05:22:00.142Z,99.90
2022-08-18T05:24:34.659Z,99.90
2022-08-18T05:27:07.395Z,99.90
2022-08-18T05:29:36.746Z,99.90
2022-08-18T05:32:09.246Z,99.90
2022-08-18T05:34:36.342Z,99.90
2022-08-18T05:37:16.940Z,99.90
2022-08-18T05:39:58.474Z,99.90
2022-08-18T05:42:37.372Z,99.90
2022-08-18T05:45:12.054Z,99.90
2022-08-18T05:47:39.288Z,99.90
2022-08-18T05:50:19.903Z,99.90
2022-08-18T05:52:57.500Z,99.90
2022-08-18T05:55:49.714Z,99.90
2022-08-18T05:58:22.248Z,99.90
2022-08-18T06:01:00.185Z,99.90
2022-08-18T06:03:46.362Z,99.90
2022-08-18T06:06:19.791Z,99.90
2022-08-18T06:09:03.043Z,99.90
2022-08-18T06:11:29.801Z,99.90
2022-08-18T06:13:59.950Z,99.90
2022-08-18T06:16:29.718Z,99.90
2022-08-18T06:19:29.746Z,99.90
2022-08-18T06:22:30.486Z,99.90
2022-08-18T06:24:58.030Z,99.90
2022-08-18T06:27:40.296Z,99.90
2022-08-18T06:30:13.238Z,99.90
2022-08-18T06:32:53.007Z,99.90
2022-08-18T06:35:53.101Z,99.90
2022-08-18T06:38:40.628Z,99.90
2022-08-18T06:41:37.991Z,99.90
2022-08-18T06:44:37.511Z,99.90
2022-08-18T06:47:22.975Z,99.90
2022-08-18T06:50:22.599Z,99.90
2022-08-18T06:52:55.473Z,99.90
2022-08-18T06:55:37.860Z,99.90
2022-08-18T06:58:21.325Z,99.90
2022-08-18T07:00:51.987Z,99.90
2022-08-18T07:03:40.791Z,99.90
2022-08-18T07:06:21.441Z,99.90
2022-08-18T07:08:56.820Z,99.90
2022-08-18T07:11:25.387Z,99.90
2022-08-18T07:14:23.471Z,99.90
2022-08-18T07:16:59.196Z,99.90
2022-08-18T07:19:30.165Z,99.90
2022-08-18T07:22:13.339Z,99.90
2022-08-18T07:24:48.439Z,99.90
2022-08-18T07:27:20.916Z,99.90
2022-08-18T07:30:03.984Z,99.90
2022-08-18T07:32:39.601Z,99.90
2022-08-18T07:35:08.577Z,99.90
2022-08-18T07:37:54.713Z,99.90
2022-08-18T07:40:48.263Z,99.90
2022-08-18T07:43:27.590Z,99.90
2022-08-18T07:46:00.648Z,99.90
2022-08-18T07:48:40.058Z,99.90
2022-08-18T07:51:18.655Z,99.90
2022-08-18T07:54:13.174Z,99.90
2022-08-18T07:57:08.357Z,99.90
2022-08-18T07:59:50.330Z,99.90
2022-08-18T08:02:40.263Z,99.90
2022-08-18T08:05:25.540Z,99.90
2022-08-18T08:08:01.791Z,99.90
2022-08-18T08:10:51.538Z,99.90
2022-08-18T08:13:54.566Z,99.90
2022-08-18T08:16:46.393Z,99.90
2022-08-18T08:20:00.109Z,99.90
2022-08-18T08:22:37.424Z,99.90
2022-08-18T08:28:14.875Z,99.90
2022-08-18T08:30:55.207Z,99.90
2022-08-18T08:33:35.274Z,99.90
2022-08-18T08:36:05.468Z,99.90
2022-08-18T08:38:51.416Z,99.90
2022-08-18T08:41:41.443Z,99.90
2022-08-18T08:44:21.509Z,99.90
2022-08-18T08:47:01.033Z,99.90
2022-08-18T08:49:35.693Z,99.90
2022-08-18T08:52:22.927Z,99.90
2022-08-18T08:55:01.168Z,99.90
2022-08-18T08:57:38.187Z,99.90
2022-08-18T09:00:08.741Z,99.90
2022-08-18T09:02:49.060Z,99.90
2022-08-18T09:05:25.630Z,99.90
2022-08-18T09:08:05.656Z,99.90
2022-08-18T09:10:57.197Z,99.90
2022-08-18T09:13:30.464Z,99.90
2022-08-18T09:16:10.940Z,99.90
2022-08-18T09:18:46.015Z,99.90
2022-08-18T09:21:35.160Z,99.90
2022-08-18T09:24:14.865Z,99.90
2022-08-18T09:26:50.660Z,99.90
2022-08-18T09:29:45.739Z,99.90
2022-08-18T09:32:22.816Z,99.90
2022-08-18T09:35:02.579Z,99.90
2022-08-18T09:38:12.759Z,99.90
2022-08-18T09:41:26.632Z,99.90
2022-08-18T09:44:17.902Z,99.90
2022-08-18T09:46:48.643Z,99.90
2022-08-18T09:49:27.801Z,99.90
2022-08-18T09:52:02.242Z,99.90
2022-08-18T09:54:49.783Z,99.80
2022-08-18T09:57:22.136Z,98.20
2022-08-18T09:59:49.185Z,98.00
2022-08-18T10:02:29.016Z,98.60
2022-08-18T10:05:17.933Z,95.90
2022-08-18T10:08:21.569Z,96.40
2022-08-18T10:11:18.264Z,96.00
2022-08-18T10:14:06.479Z,95.50
2022-08-18T10:17:21.546Z,96.80
2022-08-18T10:19:55.123Z,94.40
2022-08-18T10:22:47.462Z,95.30
2022-08-18T10:25:29.887Z,96.10
2022-08-18T10:27:57.247Z,95.50
2022-08-18T10:30:57.319Z,94.90
2022-08-18T10:33:58.835Z,95.30
2022-08-18T10:36:59.079Z,95.10
2022-08-18T10:39:47.519Z,93.30
2022-08-18T10:42:31.028Z,94.00
2022-08-18T10:45:25.336Z,93.60
2022-08-18T10:48:28.710Z,94.40
2022-08-18T10:51:21.610Z,94.20
2022-08-18T10:53:59.755Z,92.70
2022-08-18T10:56:52.148Z,93.70
2022-08-18T10:59:31.888Z,91.90
2022-08-18T11:02:30.907Z,93.00
2022-08-18T11:04:59.788Z,91.90
2022-08-18T11:07:34.389Z,95.00
2022-08-18T11:10:34.686Z,94.70
2022-08-18T11:13:32.221Z,93.20
2022-08-18T11:16:18.232Z,94.20
2022-08-18T11:19:03.040Z,95.40
2022-08-18T11:21:42.753Z,95.40
2022-08-18T11:24:16.505Z,95.70
2022-08-18T11:26:53.216Z,94.40
2022-08-18T11:29:34.121Z,94.30
2022-08-18T11:32:06.787Z,93.50
2022-08-18T11:37:49.667Z,93.30
2022-08-18T11:43:23.980Z,95.10
2022-08-18T11:45:55.054Z,93.70
2022-08-18T11:48:37.822Z,92.00
2022-08-18T11:51:23.647Z,93.50
2022-08-18T11:53:58.340Z,93.00
2022-08-18T11:56:35.892Z,94.10
2022-08-18T12:02:21.235Z,93.40
2022-08-18T12:04:57.820Z,94.10
2022-08-18T12:07:35.120Z,94.80
2022-08-18T12:10:28.710Z,94.80
2022-08-18T12:13:00.525Z,94.20
2022-08-18T12:15:43.558Z,94.00
2022-08-18T12:18:19.044Z,94.30
2022-08-18T12:20:55.045Z,94.40
2022-08-18T12:23:22.015Z,94.70
2022-08-18T12:25:51.766Z,95.00
2022-08-18T12:28:22.138Z,94.80
2022-08-18T12:30:57.073Z,95.60
2022-08-18T12:36:12.123Z,94.70
2022-08-18T12:38:44.090Z,94.40
2022-08-18T12:41:23.518Z,95.00
2022-08-18T12:43:58.998Z,94.40
2022-08-18T12:46:26.720Z,94.70
2022-08-18T12:48:53.706Z,94.10
2022-08-18T12:51:24.733Z,94.10
2022-08-18T12:53:59.539Z,93.70
2022-08-18T12:56:30.752Z,94.00
2022-08-18T12:59:00.306Z,93.80
2022-08-18T13:01:32.468Z,93.00
2022-08-18T13:04:11.099Z,93.10
2022-08-18T13:06:58.930Z,94.00
2022-08-18T13:09:48.556Z,95.00
2022-08-18T13:12:19.547Z,94.90
2022-08-18T13:14:47.442Z,95.00
2022-08-18T13:17:33.564Z,95.30
2022-08-18T13:20:14.149Z,95.60
2022-08-18T13:22:41.275Z,95.90
2022-08-18T13:25:12.389Z,95.40
2022-08-18T13:27:39.276Z,94.80
2022-08-18T13:30:29.975Z,94.80
2022-08-18T13:33:02.319Z,94.90
2022-08-18T13:35:35.525Z,94.90
2022-08-18T13:38:14.491Z,94.90
2022-08-18T13:40:48.402Z,94.90
2022-08-18T13:43:17.674Z,94.90
2022-08-18T13:45:46.982Z,95.00
2022-08-18T13:48:19.913Z,95.50
2022-08-18T13:50:47.446Z,95.20
2022-08-18T13:53:19.998Z,95.50
2022-08-18T13:55:47.549Z,95.60
2022-08-18T13:58:20.156Z,95.20
2022-08-18T14:00:53.769Z,95.10
2022-08-18T14:03:42.460Z,95.80
2022-08-18T14:06:13.111Z,95.70
2022-08-18T14:08:40.634Z,95.90
2022-08-18T14:11:09.044Z,95.90
2022-08-18T14:13:38.338Z,95.60
2022-08-18T14:16:18.926Z,95.40
2022-08-18T14:19:09.693Z,96.20
2022-08-18T14:22:02.012Z,96.20
2022-08-18T14:24:48.831Z,96.30
2022-08-18T14:27:16.644Z,95.90
2022-08-18T14:29:46.829Z,96.50
2022-08-18T14:32:28.555Z,96.20
2022-08-18T14:35:00.401Z,96.20
2022-08-18T14:37:29.719Z,96.60
2022-08-18T14:39:56.914Z,96.60
2022-08-18T14:42:32.748Z,96.60
2022-08-18T14:45:17.245Z,96.50
2022-08-18T14:47:46.742Z,96.70
2022-08-18T14:50:17.098Z,96.50
2022-08-18T14:52:51.064Z,96.90
2022-08-18T14:55:18.927Z,97.00
2022-08-18T14:57:46.655Z,97.00
2022-08-18T15:00:16.911Z,97.70
2022-08-18T15:02:49.216Z,98.30
2022-08-18T15:05:19.779Z,98.30
2022-08-18T15:07:50.892Z,98.90
2022-08-18T15:10:19.917Z,99.50
2022-08-18T15:12:51.580Z,99.90
2022-08-18T15:15:19.006Z,99.90
2022-08-18T15:17:52.469Z,99.90
2022-08-18T15:20:28.946Z,99.90
2022-08-18T15:23:24.904Z,99.90
2022-08-18T15:25:56.385Z,99.90
2022-08-18T15:28:26.314Z,99.90
2022-08-18T15:31:16.631Z,99.90
2022-08-18T15:33:40.004Z,99.90
2022-08-18T15:36:10.223Z,99.90
2022-08-18T15:38:37.261Z,99.90
2022-08-18T15:41:05.910Z,99.90
2022-08-18T15:43:33.786Z,99.90
2022-08-18T15:46:00.995Z,99.90
2022-08-18T15:48:30.580Z,99.90
2022-08-18T15:50:57.327Z,99.90
2022-08-18T15:53:40.033Z,99.90
2022-08-18T15:56:16.752Z,99.90
2022-08-18T15:58:48.675Z,99.90
2022-08-18T16:01:30.455Z,99.90
2022-08-18T16:04:01.103Z,99.90
2022-08-18T16:06:32.376Z,99.90
2022-08-18T16:09:00.188Z,99.90
2022-08-18T16:11:29.648Z,99.90
2022-08-18T16:13:58.920Z,99.90
2022-08-18T16:16:29.141Z,99.90
2022-08-18T16:19:03.299Z,99.90
2022-08-18T16:21:30.078Z,99.90
2022-08-18T16:23:56.883Z,99.90
2022-08-18T16:26:24.021Z,99.90
2022-08-18T16:28:52.269Z,99.90
2022-08-18T16:31:25.015Z,99.90
2022-08-18T16:33:55.543Z,99.90
2022-08-18T16:36:25.758Z,99.90
2022-08-18T16:38:54.358Z,99.90
2022-08-18T16:41:25.928Z,99.90
2022-08-18T16:43:52.682Z,99.90
2022-08-18T16:46:26.021Z,99.90
2022-08-18T16:48:57.428Z,99.90
2022-08-18T16:51:26.228Z,99.90
2022-08-18T16:53:54.472Z,99.90
2022-08-18T16:56:24.174Z,99.90
2022-08-18T16:59:09.966Z,99.90
2022-08-18T17:01:55.313Z,99.90
2022-08-18T17:04:24.935Z,99.90
2022-08-18T17:06:52.078Z,99.90
2022-08-18T17:09:20.765Z,99.90
2022-08-18T17:11:51.645Z,99.90
2022-08-18T17:14:21.005Z,99.90
2022-08-18T17:16:51.071Z,99.90
2022-08-18T17:19:17.805Z,99.90
2022-08-18T17:21:44.671Z,99.90
2022-08-18T17:24:11.688Z,99.90
2022-08-18T17:26:59.978Z,99.90
2022-08-18T17:29:34.863Z,99.90
2022-08-18T17:32:20.207Z,99.90
2022-08-18T17:34:51.897Z,99.90
2022-08-18T17:37:21.491Z,99.90
2022-08-18T17:39:57.581Z,99.90
2022-08-18T17:42:27.511Z,99.90
2022-08-18T17:45:10.551Z,99.90
2022-08-18T17:47:56.342Z,99.90
2022-08-18T17:51:00.344Z,99.90
2022-08-18T17:53:28.015Z,99.90
2022-08-18T17:56:01.499Z,99.90
2022-08-18T17:58:56.348Z,99.90
2022-08-18T18:01:25.856Z,99.90
2022-08-18T18:03:53.734Z,99.90
2022-08-18T18:06:40.174Z,99.90
2022-08-18T18:09:11.128Z,99.90
2022-08-18T18:11:43.378Z,99.90
2022-08-18T18:14:29.431Z,99.90
2022-08-18T18:17:12.718Z,99.90
2022-08-18T18:19:42.485Z,99.90
2022-08-18T18:22:25.874Z,99.90
2022-08-18T18:25:07.777Z,99.90
2022-08-18T18:27:42.090Z,99.90
2022-08-18T18:30:25.023Z,99.90
2022-08-18T18:33:03.117Z,99.90
2022-08-18T18:35:57.014Z,99.90
2022-08-18T18:38:25.592Z,99.90
2022-08-18T18:41:03.187Z,99.90
2022-08-18T18:43:38.820Z,99.90
2022-08-18T18:46:18.574Z,99.90
2022-08-18T18:48:57.093Z,99.90
2022-08-18T18:51:35.840Z,99.90
2022-08-18T18:54:32.924Z,99.90
2022-08-18T18:56:59.828Z,99.90
2022-08-18T19:00:02.964Z,99.90
2022-08-18T19:02:41.655Z,99.90
2022-08-18T19:05:11.355Z,99.90
2022-08-18T19:08:13.500Z,99.90
2022-08-18T19:10:49.409Z,99.90
2022-08-18T19:13:32.258Z,99.90
2022-08-18T19:16:24.683Z,99.90
2022-08-18T19:19:35.784Z,99.90
2022-08-18T19:22:04.524Z,99.90
2022-08-18T19:24:38.651Z,99.90
2022-08-18T19:27:10.962Z,99.90
2022-08-18T19:29:41.931Z,99.90
2022-08-18T19:32:17.778Z,99.90
2022-08-18T19:34:52.428Z,99.90
2022-08-18T19:37:31.034Z,99.90
2022-08-18T19:40:20.399Z,99.90
2022-08-18T19:43:12.694Z,99.90
2022-08-18T19:45:53.566Z,99.90
2022-08-18T19:48:23.745Z,99.90
2022-08-18T19:50:57.958Z,99.90
2022-08-18T19:53:46.508Z,99.90
2022-08-18T19:56:35.603Z,99.90
2022-08-18T19:59:34.077Z,99.90
2022-08-18T20:02:08.294Z,99.90
2022-08-18T20:04:50.864Z,99.90
2022-08-18T20:07:53.384Z,99.90
2022-08-18T20:10:43.383Z,99.90
2022-08-18T20:13:43.229Z,99.90
2022-08-18T20:16:43.567Z,99.90
2022-08-18T20:19:37.735Z,99.90
2022-08-18T20:22:07.703Z,99.90
2022-08-18T20:24:54.822Z,99.90
2022-08-18T20:27:35.418Z,99.90
2022-08-18T20:30:23.756Z,99.90
2022-08-18T20:33:41.211Z,99.90
2022-08-18T20:36:30.363Z,99.90
2022-08-18T20:38:59.922Z,99.90
2022-08-18T20:41:39.099Z,99.90
2022-08-18T20:44:28.631Z,99.90
2022-08-18T20:47:13.501Z,99.90
2022-08-18T20:49:55.658Z,99.90
2022-08-18T20:52:41.323Z,99.90
2022-08-18T20:55:32.985Z,99.90
2022-08-18T20:58:08.276Z,99.90
2022-08-18T21:00:40.115Z,99.90
2022-08-18T21:03:12.402Z,99.90
2022-08-18T21:05:43.666Z,99.90
2022-08-18T21:08:16.602Z,99.90
2022-08-18T21:11:01.855Z,99.90
2022-08-18T21:13:40.559Z,99.90
2022-08-18T21:16:37.749Z,99.90
2022-08-18T21:19:19.751Z,99.90
2022-08-18T21:21:57.944Z,99.90
2022-08-18T21:24:44.020Z,99.90
2022-08-18T21:27:24.207Z,99.90
2022-08-18T21:29:52.074Z,99.90
2022-08-18T21:32:22.234Z,99.90
2022-08-18T21:34:49.045Z,99.90
2022-08-18T21:37:18.113Z,99.90
2022-08-18T21:39:54.691Z,99.90
2022-08-18T21:42:28.375Z,99.90
2022-08-18T21:45:00.700Z,99.90
2022-08-18T21:47:30.150Z,99.90
2022-08-18T21:50:08.245Z,99.90
2022-08-18T21:52:36.910Z,99.90
2022-08-18T21:55:08.393Z,99.90
2022-08-18T21:57:59.519Z,99.90
2022-08-18T22:00:30.192Z,99.90
2022-08-18T22:03:17.128Z,99.90
2022-08-18T22:05:57.908Z,99.90
2022-08-18T22:08:28.029Z,99.90
2022-08-18T22:11:38.351Z,99.90
2022-08-18T22:14:35.762Z,99.90
2022-08-18T22:17:32.210Z,99.90
2022-08-18T22:20:36.475Z,99.90
2022-08-18T22:23:47.033Z,99.90
2022-08-18T22:26:23.632Z,99.90
2022-08-18T22:29:15.296Z,99.90
2022-08-18T22:31:50.665Z,99.90
2022-08-18T22:34:28.264Z,99.90
2022-08-18T22:37:07.678Z,99.90
2022-08-18T22:39:40.347Z,99.90
2022-08-18T22:42:09.584Z,99.90
2022-08-18T22:44:37.718Z,99.90
2022-08-18T22:47:04.840Z,99.90
2022-08-18T22:49:36.991Z,99.90
2022-08-18T22:52:12.866Z,99.90
2022-08-18T22:54:39.762Z,99.90
2022-08-18T22:57:10.247Z,99.90
2022-08-18T22:59:37.596Z,99.90
2022-08-18T23:02:10.424Z,99.90
2022-08-18T23:04:37.483Z,99.90
2022-08-18T23:07:04.280Z,99.90
2022-08-18T23:09:33.246Z,99.90
2022-08-18T23:12:04.187Z,99.90
2022-08-18T23:14:32.420Z,99.90
2022-08-18T23:17:00.437Z,99.90
2022-08-18T23:19:28.980Z,99.90
2022-08-18T23:21:55.999Z,99.90
2022-08-18T23:24:22.942Z,99.90
2022-08-18T23:26:49.980Z,99.90
2022-08-18T23:29:18.751Z,99.90
2022-08-18T23:31:48.384Z,99.90
2022-08-18T23:34:19.863Z,99.90
2022-08-18T23:36:56.080Z,99.90
2022-08-18T23:39:25.055Z,99.90
2022-08-18T23:41:55.439Z,99.90
2022-08-18T23:44:27.429Z,99.90
2022-08-18T23:46:58.137Z,99.90
2022-08-18T23:49:30.311Z,99.90
2022-08-18T23:51:58.739Z,99.90
2022-08-18T23:54:31.530Z,99.90
2022-08-18T23:56:59.054Z,99.90
2022-08-18T23:59:27.400Z,99.90
